createdAt,value
2018-07-23T00:01:23.527Z,85.63
2018-07-23T00:03:53.128Z,85.01
2018-07-23T00:06:22.865Z,85.38
2018-07-23T00:08:53.497Z,84.93
2018-07-23T00:11:55.799Z,85.12
2018-07-23T00:14:27.342Z,85.29
2018-07-23T00:16:58.663Z,85.46
2018-07-23T00:19:29.398Z,84.46
2018-07-23T00:22:01.310Z,84.64
2018-07-23T00:25:08.143Z,84.09
2018-07-23T00:27:39.161Z,83.95
2018-07-23T00:30:09.994Z,85.27
2018-07-23T00:32:39.680Z,85.82
2018-07-23T00:35:25.492Z,85.12
2018-07-23T00:38:00.387Z,86.63
2018-07-23T00:40:30.053Z,86.62
2018-07-23T00:43:00.260Z,86.06
2018-07-23T00:45:30.012Z,86.59
2018-07-23T00:48:00.273Z,86.94
2018-07-23T00:51:04.378Z,87.16
2018-07-23T00:53:36.741Z,86.51
2018-07-23T00:56:06.435Z,87.21
2018-07-23T00:58:36.127Z,86.81
2018-07-23T01:01:05.681Z,87.32
2018-07-23T01:03:48.265Z,86.55
2018-07-23T01:06:22.236Z,86.30
2018-07-23T01:08:51.937Z,86.88
2018-07-23T01:11:21.963Z,87.06
2018-07-23T01:13:51.598Z,87.44
2018-07-23T01:16:25.131Z,87.39
2018-07-23T01:19:02.017Z,86.94
2018-07-23T01:21:35.021Z,87.42
2018-07-23T01:24:04.840Z,87.52
2018-07-23T01:26:34.443Z,87.43
2018-07-23T01:29:04.161Z,86.80
2018-07-23T01:31:33.849Z,87.13
2018-07-23T01:34:03.651Z,86.82
2018-07-23T01:36:34.471Z,87.41
2018-07-23T01:39:05.720Z,87.65
2018-07-23T01:41:36.501Z,87.55
2018-07-23T01:44:06.335Z,87.92
2018-07-23T01:46:36.021Z,87.81
2018-07-23T01:49:05.848Z,87.96
2018-07-23T01:51:35.685Z,87.34
2018-07-23T01:54:05.621Z,87.49
2018-07-23T01:56:37.170Z,87.79
2018-07-23T01:59:07.617Z,88.30
2018-07-23T02:01:37.349Z,88.16
2018-07-23T02:04:07.087Z,88.73
2018-07-23T02:06:36.678Z,87.93
2018-07-23T02:09:10.461Z,88.40
2018-07-23T02:11:39.929Z,87.92
2018-07-23T02:14:10.347Z,87.97
2018-07-23T02:16:40.572Z,88.19
2018-07-23T02:19:10.666Z,88.09
2018-07-23T02:21:40.701Z,88.36
2018-07-23T02:24:11.404Z,88.34
2018-07-23T02:26:41.063Z,88.44
2018-07-23T02:29:10.905Z,87.69
2018-07-23T02:31:40.522Z,87.87
2018-07-23T02:34:10.249Z,87.63
2018-07-23T02:36:40.312Z,87.44
2018-07-23T02:39:12.176Z,87.66
2018-07-23T02:41:42.848Z,87.47
2018-07-23T02:44:12.707Z,88.04
2018-07-23T02:46:42.302Z,88.14
2018-07-23T02:49:12.106Z,88.02
2018-07-23T02:51:42.047Z,87.30
2018-07-23T02:54:11.746Z,87.84
2018-07-23T02:56:42.342Z,88.08
2018-07-23T02:59:12.766Z,87.11
2018-07-23T03:01:43.128Z,87.46
2018-07-23T03:04:12.869Z,88.25
2018-07-23T03:06:42.525Z,88.68
2018-07-23T03:09:12.136Z,87.67
2018-07-23T03:11:41.842Z,88.53
2018-07-23T03:14:12.297Z,88.61
2018-07-23T03:16:43.383Z,88.21
2018-07-23T03:19:14.385Z,87.86
2018-07-23T03:21:45.078Z,88.24
2018-07-23T03:24:16.156Z,87.90
2018-07-23T03:26:50.762Z,87.78
2018-07-23T03:29:23.594Z,88.02
2018-07-23T03:31:57.020Z,87.92
2018-07-23T03:34:27.453Z,87.77
2018-07-23T03:36:58.608Z,87.84
2018-07-23T03:39:29.179Z,88.24
2018-07-23T03:41:59.508Z,86.91
2018-07-23T03:44:29.276Z,87.60
2018-07-23T03:46:59.088Z,87.46
2018-07-23T03:49:28.930Z,87.16
2018-07-23T03:51:58.635Z,87.82
2018-07-23T03:54:28.867Z,87.96
2018-07-23T03:56:59.231Z,88.42
2018-07-23T03:59:29.234Z,88.45
2018-07-23T04:01:59.763Z,88.25
2018-07-23T04:04:29.992Z,87.62
2018-07-23T04:06:59.975Z,87.74
2018-07-23T04:09:30.428Z,88.00
2018-07-23T04:12:01.744Z,88.25
2018-07-23T04:14:31.722Z,87.63
2018-07-23T04:17:01.386Z,86.99
2018-07-23T04:19:32.077Z,87.59
2018-07-23T04:22:02.104Z,87.83
2018-07-23T04:24:31.874Z,87.46
2018-07-23T04:27:01.543Z,87.81
2018-07-23T04:29:31.322Z,87.89
2018-07-23T04:32:01.002Z,88.39
2018-07-23T04:34:30.822Z,88.03
2018-07-23T04:37:00.551Z,87.99
2018-07-23T04:39:30.430Z,88.40
2018-07-23T04:42:00.110Z,88.46
2018-07-23T04:44:29.889Z,87.77
2018-07-23T04:46:59.629Z,88.60
2018-07-23T04:49:29.558Z,87.73
2018-07-23T04:51:59.251Z,88.11
2018-07-23T04:54:29.233Z,87.99
2018-07-23T04:56:59.038Z,87.98
2018-07-23T04:59:28.769Z,88.51
2018-07-23T05:01:58.529Z,87.71
2018-07-23T05:04:28.329Z,88.40
2018-07-23T05:06:58.350Z,87.58
2018-07-23T05:09:28.180Z,88.78
2018-07-23T05:11:57.889Z,87.29
2018-07-23T05:14:27.637Z,86.94
2018-07-23T05:16:57.390Z,87.61
2018-07-23T05:19:27.150Z,86.24
2018-07-23T05:21:56.850Z,86.76
2018-07-23T05:24:27.665Z,86.46
2018-07-23T05:26:57.410Z,86.25
2018-07-23T05:29:27.210Z,85.23
2018-07-23T05:31:57.031Z,85.92
2018-07-23T05:34:27.098Z,86.86
2018-07-23T05:36:56.770Z,87.10
2018-07-23T05:39:26.518Z,86.74
2018-07-23T05:41:56.352Z,86.94
2018-07-23T05:44:26.432Z,86.54
2018-07-23T05:46:56.251Z,86.80
2018-07-23T05:49:26.050Z,86.93
2018-07-23T05:51:56.015Z,86.67
2018-07-23T05:54:25.911Z,86.99
2018-07-23T05:56:55.677Z,87.00
2018-07-23T05:59:25.513Z,86.94
2018-07-23T06:01:55.335Z,87.04
2018-07-23T06:04:25.191Z,86.64
2018-07-23T06:06:55.015Z,87.79
2018-07-23T06:09:24.778Z,87.45
2018-07-23T06:11:54.603Z,87.33
2018-07-23T06:14:24.776Z,87.20
2018-07-23T06:16:54.519Z,87.34
2018-07-23T06:19:24.444Z,87.00
2018-07-23T06:21:54.118Z,86.79
2018-07-23T06:24:23.865Z,86.31
2018-07-23T06:26:53.623Z,88.02
2018-07-23T06:29:24.097Z,87.12
2018-07-23T06:31:53.918Z,86.89
2018-07-23T06:34:24.464Z,86.52
2018-07-23T06:36:54.223Z,86.01
2018-07-23T06:39:24.177Z,87.14
2018-07-23T06:41:53.876Z,86.57
2018-07-23T06:44:23.823Z,86.71
2018-07-23T06:46:53.580Z,86.42
2018-07-23T06:49:23.463Z,86.54
2018-07-23T06:51:53.183Z,86.27
2018-07-23T06:54:23.062Z,86.48
2018-07-23T06:56:52.863Z,85.58
2018-07-23T06:59:22.719Z,87.17
2018-07-23T07:01:52.638Z,86.73
2018-07-23T07:04:22.537Z,86.77
2018-07-23T07:06:52.318Z,86.42
2018-07-23T07:09:22.106Z,85.97
2018-07-23T07:11:51.913Z,85.31
2018-07-23T07:14:22.489Z,84.16
2018-07-23T07:16:52.329Z,84.22
2018-07-23T07:19:22.144Z,84.22
2018-07-23T07:21:51.888Z,84.05
2018-07-23T07:24:22.011Z,84.75
2018-07-23T07:26:52.185Z,84.59
2018-07-23T07:29:22.710Z,85.80
2018-07-23T07:31:52.428Z,85.04
2018-07-23T07:34:22.310Z,84.67
2018-07-23T07:36:52.688Z,85.13
2018-07-23T07:39:22.407Z,84.77
2018-07-23T07:41:52.117Z,84.18
2018-07-23T07:44:22.248Z,85.52
2018-07-23T07:46:52.073Z,85.04
2018-07-23T07:49:21.808Z,85.22
2018-07-23T07:51:51.630Z,84.47
2018-07-23T07:54:21.578Z,83.41
2018-07-23T07:56:51.311Z,84.84
2018-07-23T07:59:22.069Z,84.12
2018-07-23T08:01:51.832Z,85.31
2018-07-23T08:04:21.726Z,84.11
2018-07-23T08:06:51.450Z,83.54
2018-07-23T08:09:21.419Z,83.95
2018-07-23T08:11:51.211Z,85.27
2018-07-23T08:14:21.231Z,84.71
2018-07-23T08:16:50.991Z,84.84
2018-07-23T08:19:20.792Z,84.49
2018-07-23T08:21:50.571Z,83.85
2018-07-23T08:24:20.791Z,83.04
2018-07-23T08:26:50.591Z,83.60
2018-07-23T08:29:20.755Z,82.98
2018-07-23T08:31:50.681Z,83.13
2018-07-23T08:34:20.691Z,82.23
2018-07-23T08:36:50.436Z,82.05
2018-07-23T08:39:20.452Z,79.77
2018-07-23T08:41:50.189Z,79.05
2018-07-23T08:44:20.058Z,81.69
2018-07-23T08:46:49.930Z,78.19
2018-07-23T08:49:19.829Z,78.91
2018-07-23T08:51:49.630Z,77.92
2018-07-23T08:54:19.856Z,77.64
2018-07-23T08:56:49.718Z,75.51
2018-07-23T08:59:19.570Z,75.44
2018-07-23T09:01:49.488Z,74.41
2018-07-23T09:04:19.385Z,75.13
2018-07-23T09:06:49.529Z,77.55
2018-07-23T09:09:19.510Z,78.58
2018-07-23T09:11:49.387Z,78.91
2018-07-23T09:14:19.265Z,76.82
2018-07-23T09:16:49.145Z,74.81
2018-07-23T09:19:19.146Z,75.87
2018-07-23T09:21:48.945Z,75.90
2018-07-23T09:24:19.965Z,76.40
2018-07-23T09:26:49.725Z,74.97
2018-07-23T09:29:20.265Z,74.64
2018-07-23T09:31:50.509Z,75.21
2018-07-23T09:34:21.327Z,74.91
2018-07-23T09:36:51.187Z,75.88
2018-07-23T09:39:21.066Z,76.56
2018-07-23T09:41:50.863Z,77.04
2018-07-23T09:44:21.688Z,76.76
2018-07-23T09:46:51.624Z,76.95
2018-07-23T09:49:21.444Z,77.11
2018-07-23T09:51:51.317Z,77.38
2018-07-23T09:54:21.225Z,76.32
2018-07-23T09:56:51.104Z,76.79
2018-07-23T09:59:21.426Z,76.85
2018-07-23T10:01:51.364Z,78.39
2018-07-23T10:04:21.164Z,78.77
2018-07-23T10:06:50.985Z,77.18
2018-07-23T10:09:20.745Z,77.05
2018-07-23T10:11:50.514Z,78.21
2018-07-23T10:14:20.375Z,78.62
2018-07-23T10:16:50.361Z,78.85
2018-07-23T10:19:20.101Z,79.96
2018-07-23T10:21:49.996Z,80.14
2018-07-23T10:24:19.753Z,79.92
2018-07-23T10:26:49.733Z,79.13
2018-07-23T10:29:19.516Z,80.69
2018-07-23T10:31:49.254Z,80.53
2018-07-23T10:34:19.474Z,80.90
2018-07-23T10:36:49.414Z,80.44
2018-07-23T10:39:19.793Z,81.27
2018-07-23T10:41:49.935Z,79.93
2018-07-23T10:44:19.656Z,81.11
2018-07-23T10:46:49.534Z,81.73
2018-07-23T10:49:19.342Z,81.26
2018-07-23T10:51:49.242Z,79.75
2018-07-23T10:54:19.155Z,81.25
2018-07-23T10:56:49.015Z,79.52
2018-07-23T10:59:18.823Z,79.16
2018-07-23T11:01:48.615Z,79.79
2018-07-23T11:04:18.399Z,80.67
2018-07-23T11:06:48.215Z,81.53
2018-07-23T11:09:17.895Z,81.29
2018-07-23T11:11:47.623Z,80.46
2018-07-23T11:14:17.355Z,79.25
2018-07-23T11:16:47.283Z,80.03
2018-07-23T11:19:17.071Z,79.53
2018-07-23T11:21:47.444Z,80.37
2018-07-23T11:24:17.304Z,80.02
2018-07-23T11:26:47.246Z,79.42
2018-07-23T11:29:17.016Z,79.22
2018-07-23T11:31:46.996Z,79.79
2018-07-23T11:34:16.804Z,79.54
2018-07-23T11:36:46.745Z,80.37
2018-07-23T11:39:16.544Z,79.83
2018-07-23T11:41:46.217Z,79.11
2018-07-23T11:44:16.118Z,80.44
2018-07-23T11:46:45.918Z,80.42
2018-07-23T11:49:15.585Z,79.83
2018-07-23T11:51:45.438Z,80.71
2018-07-23T11:54:15.158Z,80.30
2018-07-23T11:56:45.027Z,79.69
2018-07-23T11:59:14.719Z,80.29
2018-07-23T12:01:44.602Z,80.39
2018-07-23T12:04:14.800Z,79.94
2018-07-23T12:06:44.644Z,79.98
2018-07-23T12:09:14.384Z,80.55
2018-07-23T12:11:44.418Z,80.07
2018-07-23T12:14:14.189Z,79.87
2018-07-23T12:16:44.148Z,79.74
2018-07-23T12:19:14.049Z,79.32
2018-07-23T12:21:43.957Z,78.69
2018-07-23T12:24:13.890Z,75.95
2018-07-23T12:26:43.790Z,75.70
2018-07-23T12:29:13.631Z,78.38
2018-07-23T12:31:43.536Z,78.26
2018-07-23T12:34:13.370Z,73.09
2018-07-23T12:36:43.292Z,74.56
2018-07-23T12:39:14.350Z,76.67
2018-07-23T12:41:44.591Z,72.50
2018-07-23T12:44:14.590Z,70.71
2018-07-23T12:46:44.592Z,71.96
2018-07-23T12:49:14.389Z,69.95
2018-07-23T12:51:44.391Z,70.46
2018-07-23T12:54:14.310Z,71.50
2018-07-23T12:56:44.170Z,73.89
2018-07-23T12:59:14.041Z,73.95
2018-07-23T13:01:44.093Z,75.23
2018-07-23T13:04:14.170Z,74.24
2018-07-23T13:06:44.105Z,74.09
2018-07-23T13:09:14.806Z,74.75
2018-07-23T13:11:44.987Z,76.16
2018-07-23T13:14:14.703Z,76.85
2018-07-23T13:16:44.984Z,78.28
2018-07-23T13:19:15.129Z,77.46
2018-07-23T13:21:45.094Z,77.15
2018-07-23T13:24:14.842Z,75.36
2018-07-23T13:26:44.703Z,74.73
2018-07-23T13:29:14.563Z,74.99
2018-07-23T13:31:44.585Z,76.77
2018-07-23T13:34:15.070Z,77.14
2018-07-23T13:36:45.070Z,77.04
2018-07-23T13:39:15.492Z,78.02
2018-07-23T13:41:45.401Z,80.66
2018-07-23T13:44:15.141Z,79.20
2018-07-23T13:46:45.221Z,79.02
2018-07-23T13:49:14.947Z,79.39
2018-07-23T13:51:44.701Z,79.04
2018-07-23T13:54:14.415Z,78.15
2018-07-23T13:56:44.547Z,77.05
2018-07-23T13:59:14.382Z,77.30
2018-07-23T14:01:44.746Z,78.20
2018-07-23T14:04:14.581Z,77.64
2018-07-23T14:06:44.605Z,78.67
2018-07-23T14:09:14.382Z,79.27
2018-07-23T14:11:44.207Z,80.17
2018-07-23T14:14:13.881Z,79.15
2018-07-23T14:16:43.908Z,79.20
2018-07-23T14:19:13.618Z,79.78
2018-07-23T14:21:43.360Z,79.46
2018-07-23T14:24:13.246Z,77.51
2018-07-23T14:26:43.098Z,76.98
2018-07-23T14:29:12.767Z,77.38
2018-07-23T14:31:42.602Z,77.37
2018-07-23T14:34:12.389Z,77.45
2018-07-23T14:36:42.238Z,79.79
2018-07-23T14:39:14.699Z,78.61
2018-07-23T14:41:44.511Z,78.16
2018-07-23T14:44:14.627Z,78.24
2018-07-23T14:46:44.669Z,77.38
2018-07-23T14:49:14.379Z,76.71
2018-07-23T14:51:44.200Z,78.09
2018-07-23T14:54:13.961Z,76.09
2018-07-23T14:56:43.969Z,75.35
2018-07-23T14:59:13.739Z,75.61
2018-07-23T15:01:43.453Z,76.81
2018-07-23T15:04:13.280Z,74.99
2018-07-23T15:06:43.160Z,75.37
2018-07-23T15:09:13.199Z,73.77
2018-07-23T15:11:43.069Z,72.03
2018-07-23T15:14:12.781Z,71.46
2018-07-23T15:16:42.681Z,68.06
2018-07-23T15:19:12.446Z,67.92
2018-07-23T15:21:42.303Z,67.39
2018-07-23T15:24:12.179Z,65.46
2018-07-23T15:26:42.039Z,63.95
2018-07-23T15:29:11.845Z,63.78
2018-07-23T15:31:41.826Z,62.96
2018-07-23T15:34:11.456Z,58.94
2018-07-23T15:36:41.399Z,56.92
2018-07-23T15:39:11.956Z,55.70
2018-07-23T15:41:41.756Z,60.43
2018-07-23T15:44:11.740Z,54.81
2018-07-23T15:46:41.659Z,54.67
2018-07-23T15:49:11.337Z,53.91
2018-07-23T15:51:41.454Z,53.45
2018-07-23T15:54:11.325Z,51.45
2018-07-23T15:56:41.234Z,53.40
2018-07-23T15:59:11.100Z,50.78
2018-07-23T16:01:40.997Z,52.92
2018-07-23T16:04:17.396Z,47.76
2018-07-23T16:06:47.234Z,45.31
2018-07-23T16:09:17.051Z,46.19
2018-07-23T16:11:46.930Z,47.57
2018-07-23T16:14:16.772Z,46.33
2018-07-23T16:16:46.571Z,44.52
2018-07-23T16:19:17.289Z,46.28
2018-07-23T16:21:47.468Z,44.38
2018-07-23T16:24:17.448Z,44.46
2018-07-23T16:26:47.367Z,46.07
2018-07-23T16:29:17.249Z,44.25
2018-07-23T16:31:47.226Z,44.29
2018-07-23T16:34:16.958Z,47.20
2018-07-23T16:36:46.841Z,45.39
2018-07-23T16:39:16.637Z,43.80
2018-07-23T16:41:47.085Z,44.14
2018-07-23T16:44:16.817Z,42.17
2018-07-23T16:46:46.657Z,43.33
2018-07-23T16:49:16.899Z,44.20
2018-07-23T16:51:47.049Z,44.16
2018-07-23T16:54:16.828Z,43.46
2018-07-23T16:56:46.516Z,43.42
2018-07-23T16:59:16.360Z,42.59
2018-07-23T17:01:46.405Z,43.10
2018-07-23T17:04:16.177Z,43.93
2018-07-23T17:06:46.143Z,42.86
2018-07-23T17:09:16.056Z,43.28
2018-07-23T17:14:37.649Z,44.04
2018-07-23T17:17:07.399Z,45.24
2018-07-23T17:19:37.303Z,45.52
2018-07-23T17:22:07.218Z,44.57
2018-07-23T17:25:00.523Z,44.28
2018-07-23T17:28:23.787Z,45.87
2018-07-23T17:31:28.159Z,46.13
2018-07-23T17:43:35.779Z,50.94
2018-07-23T17:56:00.554Z,54.66
2018-07-23T17:59:23.694Z,55.15
2018-07-23T18:14:59.397Z,61.07
2018-07-23T18:27:23.115Z,67.20
2018-07-23T18:30:03.895Z,67.97
2018-07-23T18:46:37.104Z,73.03
2018-07-23T19:02:31.634Z,76.48
2018-07-23T19:05:03.035Z,77.01
2018-07-23T19:07:32.808Z,76.95
2018-07-23T19:10:02.784Z,78.44
2018-07-23T19:12:32.755Z,78.62
2018-07-23T19:15:23.083Z,78.69
2018-07-23T19:17:58.202Z,78.38
2018-07-23T19:20:28.367Z,78.85
2018-07-23T19:29:58.967Z,78.39
2018-07-23T19:39:03.959Z,79.60
2018-07-23T19:41:52.711Z,80.04
2018-07-23T19:48:00.020Z,80.53
2018-07-23T20:00:50.456Z,80.94
2018-07-23T20:03:45.554Z,80.55
2018-07-23T20:09:38.295Z,81.45
2018-07-23T20:12:18.025Z,81.84
2018-07-23T20:41:15.768Z,83.38
2018-07-23T20:43:49.994Z,83.19
2018-07-23T20:53:29.324Z,83.61
2018-07-23T20:56:55.333Z,83.43
2018-07-23T21:00:25.132Z,83.75
2018-07-23T21:02:57.997Z,84.07
2018-07-23T21:08:50.691Z,85.16
2018-07-23T21:14:54.732Z,84.30
2018-07-23T21:20:48.265Z,84.60
2018-07-23T21:30:13.151Z,84.96
2018-07-23T21:45:39.287Z,86.11
2018-07-23T21:48:54.142Z,85.97
2018-07-23T21:54:48.589Z,85.97
2018-07-23T22:04:15.123Z,85.92
2018-07-23T22:14:53.985Z,85.95
2018-07-23T22:20:48.425Z,85.46
2018-07-23T22:31:25.376Z,86.34
2018-07-23T22:34:57.242Z,85.93
2018-07-23T22:38:30.544Z,85.68
2018-07-23T22:45:38.319Z,86.39
2018-07-23T22:49:03.049Z,86.13
2018-07-23T22:54:59.185Z,86.12
2018-07-23T23:00:55.612Z,86.18
2018-07-23T23:04:15.783Z,86.70
2018-07-23T23:13:24.174Z,87.46
2018-07-23T23:15:53.938Z,87.36
2018-07-23T23:18:24.018Z,86.63
2018-07-23T23:20:53.802Z,87.17
2018-07-23T23:23:24.063Z,87.25
2018-07-23T23:25:54.057Z,87.65
2018-07-23T23:28:24.104Z,86.93
2018-07-23T23:30:53.878Z,86.63
2018-07-23T23:33:23.737Z,87.09
2018-07-23T23:35:53.749Z,87.14
2018-07-23T23:38:23.816Z,86.84
2018-07-23T23:40:53.647Z,86.89
2018-07-23T23:44:15.868Z,87.52
2018-07-23T23:47:51.097Z,87.01
2018-07-23T23:51:16.148Z,87.55
2018-07-23T23:57:18.142Z,86.66
